Terminal Aerodrome Forecast
Issued by NWS Shreveport, LA

Home | Current Version | Previous Version | Text Only | Print | Product List | Glossary On
Versions: 1 2 3 4 5 6 7 8 9 10 11 12 13 14
722
FTUS44 KSHV 290528
TAFTXK
TAF
KTXK 290528Z 2906/3006 14008KT P6SM FEW060 SCT250
      TEMPO 2909/2912 BKN015
     FM291200 15010KT P6SM OVC015
      TEMPO 2914/2917 16015G25KT 3SM -TSRA BR BKN030CB
     FM291700 17015G25KT P6SM VCTS SCT040CB BKN080 BKN250
     FM292100 18014G24KT P6SM VCTS BKN040CB
     FM300000 17012KT P6SM VCTS OVC040CB
     FM300300 20012KT P6SM BKN040=

USA.gov is the U.S. government's official web portal to all federal, state and local government web resources and services.